Time;durP1;ratioP1;P1;durP2;ratioP2;P2;SDS_P1;SDS_P2;PMS_P1;PMS_P2;Temp;Humidity;BMP_temperature;BMP_pressure;BME280_temperature;BME280_humidity;BME280_pressure;Samples;Min_cycle;Max_cycle;Signal;HPM_P1;HPM_P2
2024/01/25 00:01:38;;;;;;;31.73;4.32;;;7.50;99.90;;;;;;5052961;28;20020;-72
2024/01/25 00:04:04;;;;;;;31.33;3.80;;;7.40;99.90;;;;;;5039337;28;20492;-72
2024/01/25 00:06:30;;;;;;;37.45;5.00;;;7.40;99.90;;;;;;5050548;28;20040;-72
2024/01/25 00:08:55;;;;;;;33.33;4.60;;;7.40;99.90;;;;;;5044995;28;20040;-71
2024/01/25 00:11:21;;;;;;;34.47;4.90;;;7.30;99.90;;;;;;5041857;28;20022;-72
2024/01/25 00:13:47;;;;;;;26.40;3.85;;;7.30;99.90;;;;;;5046288;28;20021;-72
2024/01/25 00:16:12;;;;;;;32.08;3.67;;;7.20;99.90;;;;;;5048881;28;20545;-72
2024/01/25 00:18:38;;;;;;;46.95;3.97;;;7.20;99.90;;;;;;5060904;28;20086;-72
2024/01/25 00:21:04;;;;;;;34.83;3.50;;;7.20;99.90;;;;;;5041083;28;20059;-71
2024/01/25 00:23:30;;;;;;;27.65;4.32;;;7.10;99.90;;;;;;5045978;28;20059;-72
2024/01/25 00:25:58;;;;;;;32.88;4.03;;;7.10;99.90;;;;;;5039760;28;20388;-72
2024/01/25 00:28:25;;;;;;;27.33;3.83;;;7.00;99.90;;;;;;5041210;28;20401;-72
2024/01/25 00:30:50;;;;;;;40.95;4.10;;;7.00;99.90;;;;;;5059085;28;20464;-72
2024/01/25 00:33:16;;;;;;;30.20;3.25;;;6.90;99.90;;;;;;5045715;28;20099;-72
2024/01/25 00:35:41;;;;;;;31.70;4.60;;;6.90;99.90;;;;;;5048338;28;20029;-73
2024/01/25 00:38:07;;;;;;;23.00;3.58;;;6.80;99.90;;;;;;5035859;28;20041;-72
2024/01/25 00:40:33;;;;;;;38.10;3.58;;;6.80;99.90;;;;;;5036848;28;20061;-72
2024/01/25 00:42:59;;;;;;;26.10;3.00;;;6.70;99.90;;;;;;5034391;28;20035;-72
2024/01/25 00:45:25;;;;;;;28.17;3.85;;;6.60;99.90;;;;;;5055791;28;20036;-72
2024/01/25 00:47:51;;;;;;;24.08;3.35;;;6.60;99.90;;;;;;5039920;28;20032;-72
2024/01/25 00:50:17;;;;;;;35.53;4.07;;;6.50;99.90;;;;;;5043719;28;20028;-72
2024/01/25 00:52:46;;;;;;;36.78;4.63;;;6.50;99.90;;;;;;5050372;28;20017;-72
2024/01/25 00:55:12;;;;;;;33.97;4.00;;;6.50;99.90;;;;;;5036669;28;20071;-72
2024/01/25 00:57:38;;;;;;;32.95;4.47;;;6.50;99.90;;;;;;5059103;28;20071;-72
2024/01/25 01:00:04;;;;;;;34.63;4.35;;;6.50;99.90;;;;;;5043859;28;20037;-72
2024/01/25 01:02:36;;;;;;;30.80;3.13;;;6.40;99.90;;;;;;5049954;28;20029;-71
2024/01/25 01:05:02;;;;;;;31.92;3.67;;;6.40;99.90;;;;;;5045120;28;20037;-71
2024/01/25 01:07:28;;;;;;;33.58;3.60;;;6.30;99.90;;;;;;5050720;28;20373;-72
2024/01/25 01:09:53;;;;;;;24.15;3.10;;;6.30;99.90;;;;;;5044075;28;20159;-72
2024/01/25 01:12:19;;;;;;;29.13;3.65;;;6.20;99.90;;;;;;5048862;28;20025;-73
2024/01/25 01:14:45;;;;;;;39.67;3.85;;;6.20;99.90;;;;;;5037244;28;20029;-73
2024/01/25 01:17:10;;;;;;;31.85;2.92;;;6.20;99.90;;;;;;5058649;28;20036;-72
2024/01/25 01:19:36;;;;;;;40.60;4.30;;;6.10;99.90;;;;;;5059214;28;20041;-72
2024/01/25 01:22:01;;;;;;;38.25;4.85;;;6.10;99.90;;;;;;5047545;28;20094;-73
2024/01/25 01:24:27;;;;;;;42.95;4.07;;;6.10;99.90;;;;;;5044445;28;20516;-73
2024/01/25 01:26:52;;;;;;;32.97;4.50;;;6.10;99.90;;;;;;5055921;28;20053;-72
2024/01/25 01:29:18;;;;;;;24.45;2.47;;;6.10;99.90;;;;;;5048514;28;20108;-73
2024/01/25 01:31:44;;;;;;;42.13;3.55;;;6.00;99.90;;;;;;5045719;28;20333;-72
2024/01/25 01:34:09;;;;;;;28.85;3.55;;;6.00;99.90;;;;;;5042789;28;20033;-73
2024/01/25 01:36:35;;;;;;;29.95;3.53;;;6.00;99.90;;;;;;5055098;28;20029;-73
2024/01/25 01:39:01;;;;;;;28.08;4.70;;;6.00;99.90;;;;;;5048788;28;20033;-72
2024/01/25 01:41:26;;;;;;;36.15;3.00;;;6.00;99.90;;;;;;5062133;28;20035;-73
2024/01/25 01:43:53;;;;;;;33.25;3.60;;;6.00;99.90;;;;;;5045964;28;20501;-73
2024/01/25 01:46:31;;;;;;;30.27;3.30;;;5.90;99.90;;;;;;5053218;28;20085;-73
2024/01/25 01:48:56;;;;;;;35.72;3.30;;;5.90;99.90;;;;;;5046367;28;20087;-73
2024/01/25 01:51:22;;;;;;;33.58;2.97;;;5.90;99.90;;;;;;5041275;28;20049;-74
2024/01/25 01:53:48;;;;;;;23.88;2.83;;;5.90;99.90;;;;;;5048369;28;20106;-73
2024/01/25 01:56:15;;;;;;;24.67;3.05;;;5.90;99.90;;;;;;5051785;28;20037;-73
2024/01/25 01:58:42;;;;;;;33.83;2.92;;;5.90;99.90;;;;;;5049581;28;20036;-73
2024/01/25 02:01:07;;;;;;;33.60;3.75;;;5.90;99.90;;;;;;5049771;28;20377;-73
2024/01/25 02:03:33;;;;;;;34.97;3.17;;;5.90;99.90;;;;;;5050656;28;20032;-74
2024/01/25 02:06:02;;;;;;;33.28;3.22;;;5.80;99.90;;;;;;5061042;28;20029;-73
2024/01/25 02:08:29;;;;;;;30.85;3.72;;;5.80;99.90;;;;;;5042405;28;20040;-74
2024/01/25 02:10:54;;;;;;;24.17;3.00;;;5.70;99.90;;;;;;5046904;28;20122;-74
2024/01/25 02:13:21;;;;;;;30.38;4.05;;;5.70;99.90;;;;;;5046683;28;20109;-73
2024/01/25 02:15:47;;;;;;;33.75;3.80;;;5.70;99.90;;;;;;5039484;28;20022;-74
2024/01/25 02:18:13;;;;;;;34.72;2.75;;;5.60;99.90;;;;;;5052358;28;20127;-74
2024/01/25 02:20:38;;;;;;;28.77;2.88;;;5.60;99.90;;;;;;5050981;28;20026;-73
2024/01/25 02:23:04;;;;;;;30.13;4.38;;;5.60;99.90;;;;;;5050996;28;20473;-74
2024/01/25 02:25:29;;;;;;;37.95;3.03;;;5.50;99.90;;;;;;5040512;28;20083;-73
2024/01/25 02:27:55;;;;;;;31.98;3.38;;;5.50;99.90;;;;;;5046643;28;21199;-74
2024/01/25 02:30:21;;;;;;;34.38;3.45;;;5.40;99.90;;;;;;5050496;28;20044;-74
2024/01/25 02:32:46;;;;;;;34.08;4.38;;;5.40;99.90;;;;;;5040881;28;20410;-73
2024/01/25 02:35:12;;;;;;;30.17;4.43;;;5.40;99.90;;;;;;5052491;28;20420;-74
2024/01/25 02:37:37;;;;;;;24.17;3.38;;;5.40;99.90;;;;;;5055911;28;20079;-74
2024/01/25 02:40:04;;;;;;;26.98;2.55;;;5.30;99.90;;;;;;5051095;28;20087;-73
2024/01/25 02:42:30;;;;;;;26.98;2.58;;;5.30;99.90;;;;;;5045938;28;20116;-73
2024/01/25 02:44:55;;;;;;;44.80;4.63;;;5.30;99.90;;;;;;5039936;28;20465;-74
2024/01/25 02:47:21;;;;;;;22.98;2.22;;;5.40;99.90;;;;;;5060410;28;20031;-73
2024/01/25 02:49:46;;;;;;;40.28;3.13;;;5.30;99.90;;;;;;5042063;28;20040;-74
2024/01/25 02:52:12;;;;;;;29.88;3.83;;;5.40;99.90;;;;;;5058298;28;20032;-73
2024/01/25 02:54:38;;;;;;;31.77;3.58;;;5.30;99.90;;;;;;5053316;28;20026;-74
2024/01/25 02:57:04;;;;;;;39.47;5.15;;;5.30;99.90;;;;;;5062354;28;20370;-74
2024/01/25 02:59:30;;;;;;;24.40;2.83;;;5.30;99.90;;;;;;5050246;28;20504;-73
2024/01/25 03:01:55;;;;;;;35.70;5.05;;;5.30;99.90;;;;;;5041079;28;20033;-73
2024/01/25 03:04:21;;;;;;;31.35;3.50;;;5.30;99.90;;;;;;5039905;28;20044;-74
2024/01/25 03:06:46;;;;;;;31.60;4.25;;;5.30;99.90;;;;;;5047574;28;20029;-74
2024/01/25 03:09:13;;;;;;;26.08;2.95;;;5.30;99.90;;;;;;5049849;28;20029;-74
2024/01/25 03:11:38;;;;;;;33.25;3.83;;;5.20;99.90;;;;;;5037617;28;20022;-74
2024/01/25 03:14:04;;;;;;;27.70;2.97;;;5.20;99.90;;;;;;5040165;28;20397;-74
2024/01/25 03:16:29;;;;;;;30.00;3.38;;;5.20;99.90;;;;;;5036876;28;20033;-73
2024/01/25 03:18:55;;;;;;;33.03;3.83;;;5.10;99.90;;;;;;5059769;28;20583;-73
2024/01/25 03:21:20;;;;;;;32.55;3.20;;;5.00;99.90;;;;;;5049376;28;20032;-73
2024/01/25 03:23:46;;;;;;;24.80;2.67;;;5.00;99.90;;;;;;5044273;28;20032;-73
2024/01/25 03:26:11;;;;;;;34.95;5.35;;;5.00;99.90;;;;;;5040645;28;20033;-73
2024/01/25 03:28:39;;;;;;;36.53;3.78;;;5.00;99.90;;;;;;5048099;28;20078;-74
2024/01/25 03:31:04;;;;;;;34.63;4.18;;;5.00;99.90;;;;;;5049481;28;20067;-74
2024/01/25 03:33:32;;;;;;;24.45;3.30;;;5.00;99.90;;;;;;5039652;28;20045;-74
2024/01/25 03:36:04;;;;;;;33.83;3.42;;;4.90;99.90;;;;;;5048349;28;20017;-74
2024/01/25 03:38:30;;;;;;;25.90;3.47;;;4.90;99.90;;;;;;5040101;28;20026;-73
2024/01/25 03:40:58;;;;;;;30.00;3.05;;;4.90;99.90;;;;;;5042392;28;20029;-74
2024/01/25 03:43:27;;;;;;;28.25;3.45;;;4.80;99.90;;;;;;5055560;28;20457;-74
2024/01/25 03:45:53;;;;;;;27.05;3.03;;;4.80;99.90;;;;;;5044815;28;20131;-74
2024/01/25 03:48:19;;;;;;;37.92;4.55;;;4.70;99.90;;;;;;5048524;28;20137;-73
2024/01/25 03:50:44;;;;;;;30.17;3.88;;;4.70;99.90;;;;;;5051700;28;20017;-74
2024/01/25 03:53:10;;;;;;;31.75;3.13;;;4.60;99.90;;;;;;5037446;28;20100;-74
2024/01/25 03:55:36;;;;;;;42.15;4.20;;;4.50;99.90;;;;;;5041069;28;20029;-73
2024/01/25 03:58:01;;;;;;;31.90;3.92;;;4.40;99.90;;;;;;5045279;28;20025;-74
2024/01/25 04:00:27;;;;;;;28.40;4.78;;;4.40;99.90;;;;;;5046457;28;20037;-74
2024/01/25 04:02:52;;;;;;;31.02;3.22;;;4.40;99.90;;;;;;5038286;28;20029;-73
2024/01/25 04:05:18;;;;;;;28.70;3.58;;;4.30;99.90;;;;;;5054919;28;20029;-73
2024/01/25 04:07:44;;;;;;;28.17;3.60;;;4.20;99.90;;;;;;5049007;28;20032;-74
2024/01/25 04:10:09;;;;;;;27.75;3.17;;;4.20;99.90;;;;;;5045668;28;20037;-73
2024/01/25 04:12:35;;;;;;;30.85;3.53;;;4.20;99.90;;;;;;5052532;28;20475;-74
2024/01/25 04:15:01;;;;;;;35.63;3.75;;;4.20;99.90;;;;;;5044958;28;20564;-74
2024/01/25 04:17:26;;;;;;;30.88;3.28;;;4.20;99.90;;;;;;5045201;28;20021;-73
2024/01/25 04:19:52;;;;;;;24.30;3.13;;;4.20;99.90;;;;;;5048138;28;20201;-73
2024/01/25 04:22:18;;;;;;;30.77;2.47;;;4.20;99.90;;;;;;5051852;28;20377;-73
2024/01/25 04:24:43;;;;;;;32.65;4.05;;;4.30;99.90;;;;;;5047988;28;20425;-73
2024/01/25 04:27:12;;;;;;;37.45;3.92;;;4.30;99.90;;;;;;5047948;28;20033;-73
2024/01/25 04:29:39;;;;;;;26.38;4.18;;;4.30;99.90;;;;;;5054946;28;20492;-73
2024/01/25 04:32:05;;;;;;;28.30;3.17;;;4.20;99.90;;;;;;5048259;28;20101;-73
2024/01/25 04:34:31;;;;;;;36.40;4.00;;;4.20;99.90;;;;;;5052656;28;20035;-74
2024/01/25 04:36:56;;;;;;;23.65;3.15;;;4.20;99.90;;;;;;5041681;28;20029;-73
2024/01/25 04:39:22;;;;;;;39.47;5.43;;;4.20;99.90;;;;;;5046869;28;20045;-74
2024/01/25 04:41:48;;;;;;;29.13;3.53;;;4.10;99.90;;;;;;5031227;28;20030;-73
2024/01/25 04:44:14;;;;;;;38.75;3.72;;;4.10;99.90;;;;;;5045552;28;20467;-73
2024/01/25 04:46:39;;;;;;;30.17;4.43;;;4.10;99.90;;;;;;5037620;28;20118;-73
2024/01/25 04:49:05;;;;;;;37.75;3.63;;;4.00;99.90;;;;;;5037564;28;20091;-73
2024/01/25 04:51:30;;;;;;;30.55;4.22;;;4.00;99.90;;;;;;5044047;28;20018;-73
2024/01/25 04:53:56;;;;;;;30.70;3.00;;;4.10;99.90;;;;;;5065798;28;20043;-74
2024/01/25 04:56:22;;;;;;;25.27;4.18;;;4.10;99.90;;;;;;5034356;28;20071;-74
2024/01/25 04:58:47;;;;;;;40.28;4.13;;;4.10;99.90;;;;;;5051635;28;20044;-73
2024/01/25 05:01:13;;;;;;;40.58;5.07;;;4.10;99.90;;;;;;5044194;28;20444;-73
2024/01/25 05:03:38;;;;;;;40.10;3.65;;;4.10;99.90;;;;;;5047921;28;20025;-73
2024/01/25 05:06:04;;;;;;;34.20;4.47;;;4.00;99.90;;;;;;5056002;28;20051;-73
2024/01/25 05:08:29;;;;;;;29.58;3.85;;;4.00;99.90;;;;;;5042177;28;20026;-73
2024/01/25 05:10:55;;;;;;;28.45;4.82;;;4.00;99.90;;;;;;5049890;28;20025;-74
2024/01/25 05:13:21;;;;;;;36.70;4.65;;;4.00;99.90;;;;;;5052337;28;20087;-74
2024/01/25 05:15:46;;;;;;;34.08;3.63;;;4.00;99.90;;;;;;5034175;28;20437;-73
2024/01/25 05:18:12;;;;;;;37.67;3.70;;;4.00;99.90;;;;;;5034385;28;20396;-74
2024/01/25 05:20:37;;;;;;;34.67;3.60;;;4.00;99.90;;;;;;5050298;28;20025;-74
2024/01/25 05:23:04;;;;;;;32.03;4.07;;;4.00;99.90;;;;;;5044317;28;20036;-73
2024/01/25 05:25:30;;;;;;;42.63;5.85;;;3.90;99.90;;;;;;5058854;28;20107;-74
2024/01/25 05:27:56;;;;;;;40.20;5.72;;;3.90;99.90;;;;;;5051914;28;20155;-74
2024/01/25 05:30:22;;;;;;;30.00;4.43;;;3.90;99.90;;;;;;5043943;28;20025;-73
2024/01/25 05:32:49;;;;;;;33.13;3.47;;;3.80;99.90;;;;;;5031815;28;20389;-73
2024/01/25 05:35:15;;;;;;;36.08;3.88;;;3.90;99.90;;;;;;5037542;28;20013;-73
2024/01/25 05:37:42;;;;;;;33.00;4.53;;;3.80;99.90;;;;;;5035453;28;20028;-73
2024/01/25 05:40:09;;;;;;;47.90;4.03;;;3.80;99.90;;;;;;5040986;28;20107;-74
2024/01/25 05:42:35;;;;;;;38.47;3.35;;;3.80;99.90;;;;;;5065174;28;20028;-74
2024/01/25 05:45:01;;;;;;;35.17;4.95;;;3.90;99.90;;;;;;5060502;28;20049;-73
2024/01/25 05:47:26;;;;;;;36.72;3.83;;;3.80;99.90;;;;;;5037806;28;20028;-74
2024/01/25 05:49:52;;;;;;;38.53;4.47;;;3.90;99.90;;;;;;5042563;28;20112;-74
2024/01/25 05:52:18;;;;;;;34.08;4.97;;;3.80;99.90;;;;;;5036301;28;20036;-73
2024/01/25 05:54:43;;;;;;;43.88;4.53;;;3.80;99.90;;;;;;5040201;28;20044;-73
2024/01/25 05:57:10;;;;;;;39.63;4.65;;;3.70;99.90;;;;;;5037262;28;20107;-74
2024/01/25 05:59:35;;;;;;;46.30;4.93;;;3.70;99.90;;;;;;5048220;28;20037;-74
2024/01/25 06:02:01;;;;;;;41.58;4.72;;;3.70;99.90;;;;;;5043163;28;20037;-73
2024/01/25 06:04:26;;;;;;;35.95;4.20;;;3.70;99.90;;;;;;5047205;28;20026;-73
2024/01/25 06:06:52;;;;;;;40.38;4.10;;;3.80;99.90;;;;;;5039444;28;20025;-74
2024/01/25 06:09:17;;;;;;;22.05;3.65;;;3.80;99.90;;;;;;5046042;28;20021;-74
2024/01/25 06:11:43;;;;;;;40.40;4.03;;;3.80;99.90;;;;;;5033536;28;20033;-74
2024/01/25 06:14:10;;;;;;;38.53;4.63;;;3.80;99.90;;;;;;5046608;28;20919;-73
2024/01/25 06:16:35;;;;;;;34.53;4.43;;;3.80;99.90;;;;;;5039904;28;20040;-74
2024/01/25 06:19:03;;;;;;;38.33;5.30;;;3.80;99.90;;;;;;5044529;28;20040;-74
2024/01/25 06:21:29;;;;;;;32.55;3.88;;;3.70;99.90;;;;;;5039648;28;20022;-74
2024/01/25 06:23:54;;;;;;;29.95;4.47;;;3.70;99.90;;;;;;5043720;28;20404;-73
2024/01/25 06:26:20;;;;;;;35.10;3.72;;;3.70;99.90;;;;;;5046255;28;21144;-75
2024/01/25 06:28:45;;;;;;;48.80;4.60;;;3.60;99.90;;;;;;5036184;28;20040;-74
2024/01/25 06:31:12;;;;;;;39.10;4.05;;;3.60;99.90;;;;;;5045921;28;20033;-74
2024/01/25 06:33:37;;;;;;;31.88;3.97;;;3.60;99.90;;;;;;5037345;28;20036;-73
2024/01/25 06:36:03;;;;;;;31.33;3.47;;;3.70;99.90;;;;;;5041760;28;20464;-73
2024/01/25 06:38:28;;;;;;;31.95;4.15;;;3.70;99.90;;;;;;5045387;28;20115;-74
2024/01/25 06:40:54;;;;;;;34.03;4.00;;;3.80;99.90;;;;;;5049937;28;20036;-72
2024/01/25 06:43:20;;;;;;;32.95;4.50;;;3.80;99.90;;;;;;5047064;28;20032;-74
2024/01/25 06:45:46;;;;;;;32.72;3.70;;;3.80;99.90;;;;;;5040706;28;20057;-72
2024/01/25 06:48:12;;;;;;;36.53;3.10;;;3.80;99.90;;;;;;5048399;28;20043;-73
2024/01/25 06:50:37;;;;;;;41.15;4.95;;;3.70;99.90;;;;;;5060753;28;20024;-73
2024/01/25 06:53:04;;;;;;;43.33;4.38;;;3.70;99.90;;;;;;5044386;28;20107;-73
2024/01/25 06:55:29;;;;;;;33.72;3.67;;;3.70;99.90;;;;;;5044691;28;20389;-73
2024/01/25 06:57:55;;;;;;;27.40;3.03;;;3.80;99.90;;;;;;5049358;28;20036;-72
2024/01/25 07:00:21;;;;;;;44.05;4.75;;;3.70;99.90;;;;;;5048339;28;20405;-74
2024/01/25 07:02:47;;;;;;;36.28;3.95;;;3.70;99.90;;;;;;5043213;28;20055;-73
2024/01/25 07:05:13;;;;;;;29.55;4.35;;;3.80;99.90;;;;;;5050067;28;20033;-72
2024/01/25 07:07:39;;;;;;;43.88;4.90;;;3.80;99.90;;;;;;5055530;28;20470;-72
2024/01/25 07:10:06;;;;;;;36.63;4.53;;;3.80;99.90;;;;;;5064743;28;20028;-72
2024/01/25 07:12:32;;;;;;;38.97;4.38;;;3.70;99.90;;;;;;5043105;28;20393;-72
2024/01/25 07:14:57;;;;;;;32.83;5.72;;;3.80;99.90;;;;;;5045185;28;20032;-73
2024/01/25 07:17:23;;;;;;;36.65;5.63;;;3.70;99.90;;;;;;5041377;28;20191;-73
2024/01/25 07:19:48;;;;;;;29.60;3.63;;;3.70;99.90;;;;;;5047157;28;20124;-72
2024/01/25 07:22:15;;;;;;;34.70;4.00;;;3.70;99.90;;;;;;5038618;28;20025;-72
2024/01/25 07:24:41;;;;;;;53.95;4.88;;;3.70;99.90;;;;;;5040009;28;20027;-73
2024/01/25 07:27:07;;;;;;;43.33;10.93;;;3.80;99.90;;;;;;5041596;28;20034;-73
2024/01/25 07:29:32;;;;;;;32.22;5.00;;;3.80;99.90;;;;;;5049711;28;20040;-73
2024/01/25 07:31:58;;;;;;;30.38;4.60;;;3.80;99.90;;;;;;5043046;28;20033;-72
2024/01/25 07:34:23;;;;;;;48.10;4.43;;;3.80;99.90;;;;;;5061668;28;20059;-72
2024/01/25 07:36:49;;;;;;;28.02;4.63;;;3.80;99.90;;;;;;5045176;28;20396;-72
2024/01/25 07:39:15;;;;;;;36.10;4.93;;;3.90;99.90;;;;;;5048570;28;20044;-72
2024/01/25 07:41:41;;;;;;;42.97;4.85;;;3.90;99.90;;;;;;5041715;28;20063;-74
2024/01/25 07:44:07;;;;;;;28.08;4.20;;;3.90;99.90;;;;;;5039798;28;20033;-73
2024/01/25 07:46:32;;;;;;;40.78;4.78;;;3.90;99.90;;;;;;5045671;28;20474;-73
2024/01/25 07:48:58;;;;;;;37.38;4.20;;;3.90;99.90;;;;;;5049383;28;20095;-73
2024/01/25 07:51:28;;;;;;;34.13;4.35;;;3.90;99.90;;;;;;5054110;28;20044;-73
2024/01/25 07:53:54;;;;;;;40.72;4.63;;;3.90;99.90;;;;;;5063924;28;20086;-73
2024/01/25 07:56:21;;;;;;;35.10;4.10;;;3.90;99.90;;;;;;5047915;28;20481;-73
2024/01/25 07:58:51;;;;;;;35.72;3.95;;;3.80;99.90;;;;;;5033911;28;20087;-73
2024/01/25 08:01:20;;;;;;;37.90;6.47;;;3.80;99.90;;;;;;5029399;28;20120;-73
2024/01/25 08:03:47;;;;;;;49.03;6.22;;;3.80;99.90;;;;;;5049647;28;20028;-74
2024/01/25 08:06:13;;;;;;;36.72;5.10;;;3.70;99.90;;;;;;5041227;28;20018;-73
2024/01/25 08:08:39;;;;;;;39.42;5.68;;;3.80;99.90;;;;;;5041468;28;20032;-73
2024/01/25 08:11:05;;;;;;;46.67;5.35;;;3.80;99.90;;;;;;5039067;28;20037;-74
2024/01/25 08:13:31;;;;;;;36.03;4.53;;;3.80;99.90;;;;;;5037624;28;20099;-74
2024/01/25 08:15:57;;;;;;;43.50;5.47;;;3.90;99.90;;;;;;5036304;28;20401;-73
2024/01/25 08:18:23;;;;;;;37.97;5.10;;;3.90;99.90;;;;;;5034766;28;20041;-74
2024/01/25 08:20:52;;;;;;;38.63;4.70;;;4.00;99.90;;;;;;5042168;28;20079;-73
2024/01/25 08:23:18;;;;;;;38.92;5.72;;;4.00;99.90;;;;;;5041724;28;20021;-73
2024/01/25 08:25:44;;;;;;;41.25;6.95;;;4.00;99.90;;;;;;5045617;28;20036;-74
2024/01/25 08:28:10;;;;;;;32.28;6.05;;;4.00;99.90;;;;;;5030757;28;20480;-73
2024/01/25 08:30:36;;;;;;;32.33;5.47;;;4.10;99.90;;;;;;5039404;28;20060;-73
2024/01/25 08:33:01;;;;;;;45.13;6.80;;;4.10;99.90;;;;;;5038458;28;20354;-73
2024/01/25 08:35:27;;;;;;;40.28;6.25;;;4.20;99.90;;;;;;5050308;28;20087;-73
2024/01/25 08:37:53;;;;;;;45.88;5.47;;;4.20;99.90;;;;;;5042069;28;20496;-73
2024/01/25 08:40:18;;;;;;;31.75;5.50;;;4.20;99.90;;;;;;5045657;28;20040;-73
2024/01/25 08:42:44;;;;;;;25.83;4.90;;;4.30;99.90;;;;;;5043918;28;20430;-74
2024/01/25 08:45:10;;;;;;;49.42;5.30;;;4.30;99.90;;;;;;5062672;28;20060;-74
2024/01/25 08:47:36;;;;;;;46.25;5.18;;;4.40;99.90;;;;;;5042367;28;20476;-74
2024/01/25 08:50:03;;;;;;;47.67;7.82;;;4.40;99.90;;;;;;5048371;28;20033;-74
2024/01/25 08:52:29;;;;;;;39.50;6.85;;;4.50;99.90;;;;;;5038825;28;20024;-74
2024/01/25 08:54:54;;;;;;;46.97;6.28;;;4.50;99.90;;;;;;5037352;28;20025;-74
2024/01/25 08:57:20;;;;;;;38.90;5.95;;;4.50;99.90;;;;;;5041923;28;20031;-73
2024/01/25 08:59:46;;;;;;;46.60;8.20;;;4.60;99.90;;;;;;5041033;28;20044;-74
2024/01/25 09:02:12;;;;;;;50.35;8.70;;;4.70;99.90;;;;;;5050021;28;20021;-74
2024/01/25 09:04:40;;;;;;;49.22;7.35;;;4.70;99.90;;;;;;5050581;28;20065;-74
2024/01/25 09:07:05;;;;;;;37.65;6.40;;;4.80;99.90;;;;;;5052635;28;20024;-75
2024/01/25 09:09:31;;;;;;;49.08;7.90;;;4.90;99.90;;;;;;5042476;28;20028;-74
2024/01/25 09:11:57;;;;;;;41.95;7.10;;;5.00;99.90;;;;;;5054297;28;20017;-74
2024/01/25 09:14:22;;;;;;;41.17;7.00;;;5.00;99.90;;;;;;5053505;28;20024;-74
2024/01/25 09:16:48;;;;;;;46.22;6.13;;;5.20;99.90;;;;;;5058201;28;20017;-73
2024/01/25 09:19:14;;;;;;;37.03;6.40;;;5.20;99.90;;;;;;5070727;28;20404;-74
2024/01/25 09:21:40;;;;;;;37.42;7.93;;;5.30;99.90;;;;;;5042830;28;20031;-73
2024/01/25 09:24:06;;;;;;;37.50;6.38;;;5.40;99.90;;;;;;5037441;28;20033;-73
2024/01/25 09:26:32;;;;;;;37.05;6.85;;;5.50;99.90;;;;;;5039118;28;20048;-73
2024/01/25 09:28:57;;;;;;;43.67;8.38;;;5.60;99.90;;;;;;5031954;28;20033;-72
2024/01/25 09:31:23;;;;;;;38.13;8.20;;;5.70;99.90;;;;;;5056149;28;20029;-73
2024/01/25 09:33:48;;;;;;;55.25;8.32;;;5.90;99.90;;;;;;5044472;28;20025;-73
2024/01/25 09:36:16;;;;;;;39.60;8.23;;;6.00;99.90;;;;;;5036713;28;20025;-74
2024/01/25 09:38:42;;;;;;;32.92;7.05;;;6.10;99.90;;;;;;5038280;28;20041;-74
2024/01/25 09:41:08;;;;;;;31.30;7.50;;;6.20;99.90;;;;;;5033105;28;21862;-74
2024/01/25 09:43:35;;;;;;;48.15;8.82;;;6.30;99.90;;;;;;5062661;28;20037;-73
2024/01/25 09:46:01;;;;;;;41.03;7.45;;;6.40;99.90;;;;;;5041564;28;20060;-74
2024/01/25 09:48:27;;;;;;;52.85;8.32;;;6.50;99.90;;;;;;5045379;28;20567;-74
2024/01/25 09:50:55;;;;;;;41.60;9.57;;;6.50;99.90;;;;;;5057079;28;20090;-73
2024/01/25 09:53:22;;;;;;;36.97;7.07;;;6.50;99.90;;;;;;5040903;28;20115;-74
2024/01/25 09:56:03;;;;;;;52.20;8.70;;;6.50;99.90;;;;;;5036387;28;20090;-74
2024/01/25 09:58:37;;;;;;;48.70;8.75;;;6.50;99.90;;;;;;5047500;28;20036;-73
2024/01/25 10:01:03;;;;;;;36.55;8.50;;;6.60;99.90;;;;;;5039843;28;20754;-73
2024/01/25 10:03:30;;;;;;;43.97;9.73;;;6.50;99.90;;;;;;5038372;28;20043;-73
2024/01/25 10:05:56;;;;;;;43.92;9.35;;;6.60;99.90;;;;;;5037367;28;20056;-73
2024/01/25 10:08:23;;;;;;;33.85;8.25;;;6.60;99.90;;;;;;5049124;28;20248;-74
2024/01/25 10:10:49;;;;;;;44.72;8.90;;;6.70;99.90;;;;;;5034063;28;20025;-73
2024/01/25 10:13:15;;;;;;;42.15;8.82;;;6.70;99.90;;;;;;5043137;28;20543;-74
2024/01/25 10:15:41;;;;;;;47.50;9.93;;;6.70;99.90;;;;;;5045517;28;20163;-73
2024/01/25 10:18:12;;;;;;;42.92;9.85;;;6.80;99.90;;;;;;5037294;28;20083;-74
2024/01/25 10:20:40;;;;;;;42.30;8.48;;;6.80;99.90;;;;;;5042831;28;20053;-73
2024/01/25 10:23:06;;;;;;;43.53;9.50;;;6.90;99.90;;;;;;5034069;28;20433;-73
2024/01/25 10:25:34;;;;;;;35.03;9.02;;;6.90;99.90;;;;;;5036776;28;20431;-74
2024/01/25 10:28:00;;;;;;;45.42;9.35;;;7.00;99.90;;;;;;5039502;28;20031;-74
2024/01/25 10:30:27;;;;;;;41.75;10.00;;;7.10;99.90;;;;;;5040785;28;20033;-73
2024/01/25 10:32:53;;;;;;;34.03;8.73;;;7.20;99.90;;;;;;5039148;28;20389;-73
2024/01/25 10:35:20;;;;;;;47.53;10.45;;;7.20;99.90;;;;;;5041786;28;20028;-73
2024/01/25 10:37:46;;;;;;;44.92;10.27;;;7.30;99.90;;;;;;5045531;28;20086;-73
2024/01/25 10:40:13;;;;;;;37.17;10.25;;;7.30;99.90;;;;;;5038056;28;20380;-73
2024/01/25 10:42:38;;;;;;;46.88;9.98;;;7.30;99.90;;;;;;5056287;28;20038;-73
2024/01/25 10:45:05;;;;;;;43.47;9.98;;;7.30;99.90;;;;;;5044476;28;20045;-72
2024/01/25 10:47:35;;;;;;;42.88;9.70;;;7.40;99.90;;;;;;5036224;28;20119;-72
2024/01/25 10:50:02;;;;;;;43.33;9.60;;;7.40;99.90;;;;;;5042317;28;20017;-73
2024/01/25 10:52:28;;;;;;;40.58;9.50;;;7.50;99.90;;;;;;5042194;28;20034;-73
2024/01/25 10:54:54;;;;;;;38.03;10.10;;;7.50;99.90;;;;;;5040772;28;20087;-73
2024/01/25 10:57:20;;;;;;;48.75;11.57;;;7.50;99.90;;;;;;5035983;28;20029;-73
2024/01/25 10:59:46;;;;;;;44.40;10.90;;;7.50;99.90;;;;;;5035277;28;20029;-73
2024/01/25 11:02:12;;;;;;;40.60;11.15;;;7.60;99.90;;;;;;5034450;28;20101;-73
2024/01/25 11:04:37;;;;;;;34.90;10.35;;;7.60;99.90;;;;;;5027911;28;20029;-73
2024/01/25 11:07:11;;;;;;;38.35;9.95;;;7.60;99.90;;;;;;5037790;28;20029;-73
2024/01/25 11:09:38;;;;;;;48.47;9.65;;;7.60;99.90;;;;;;5035832;28;20083;-73
2024/01/25 11:12:12;;;;;;;43.33;9.52;;;7.60;99.90;;;;;;5040885;28;20036;-73
2024/01/25 11:14:38;;;;;;;37.17;10.20;;;7.60;99.90;;;;;;5040248;28;20025;-73
2024/01/25 11:17:21;;;;;;;40.15;10.27;;;7.60;99.90;;;;;;5041164;28;20033;-73
2024/01/25 11:19:49;;;;;;;46.15;8.45;;;7.70;99.90;;;;;;5041617;28;20033;-73
2024/01/25 11:22:15;;;;;;;45.85;10.30;;;7.70;99.90;;;;;;5056458;28;20078;-74
2024/01/25 11:24:42;;;;;;;30.67;8.48;;;7.80;99.90;;;;;;5047796;28;20025;-74
2024/01/25 11:27:10;;;;;;;49.28;10.27;;;7.80;99.90;;;;;;5035822;28;20124;-71
2024/01/25 11:29:35;;;;;;;44.95;10.15;;;7.80;99.90;;;;;;5036434;28;20044;-72
2024/01/25 11:32:04;;;;;;;44.80;9.48;;;7.80;99.90;;;;;;5036934;28;20026;-73
2024/01/25 11:34:31;;;;;;;40.78;10.18;;;7.80;99.90;;;;;;5046005;28;20074;-72
2024/01/25 11:36:57;;;;;;;39.97;9.65;;;7.80;99.90;;;;;;5034118;28;20116;-73
2024/01/25 11:39:23;;;;;;;36.78;8.43;;;7.80;99.90;;;;;;5046686;28;20090;-72
2024/01/25 11:41:51;;;;;;;40.70;9.95;;;7.80;99.90;;;;;;5028801;28;20087;-73
2024/01/25 11:44:17;;;;;;;38.20;9.68;;;7.80;99.90;;;;;;5025818;28;20501;-73
2024/01/25 11:46:43;;;;;;;40.00;10.50;;;7.90;99.90;;;;;;5029486;28;20035;-74
2024/01/25 11:49:09;;;;;;;38.00;10.43;;;7.90;99.90;;;;;;5034779;28;20112;-74
2024/01/25 11:51:35;;;;;;;39.42;9.93;;;8.00;99.90;;;;;;5034321;28;20104;-73
2024/01/25 11:54:00;;;;;;;47.65;11.38;;;8.00;99.90;;;;;;5033392;28;20099;-74
2024/01/25 11:56:33;;;;;;;40.50;11.45;;;8.00;99.90;;;;;;5041223;28;20044;-74
2024/01/25 11:58:59;;;;;;;43.45;10.50;;;8.00;99.90;;;;;;5050758;28;20082;-74
2024/01/25 12:01:25;;;;;;;42.85;10.23;;;8.10;99.90;;;;;;5045454;28;20013;-74
2024/01/25 12:03:51;;;;;;;45.80;10.50;;;8.10;99.90;;;;;;5043868;28;20037;-73
2024/01/25 12:06:17;;;;;;;33.30;10.65;;;8.10;99.90;;;;;;5027288;28;20029;-74
2024/01/25 12:08:46;;;;;;;46.60;11.55;;;8.10;99.90;;;;;;5054541;28;20082;-73
2024/01/25 12:11:12;;;;;;;40.53;11.25;;;8.20;99.90;;;;;;5037774;28;20473;-73
2024/01/25 12:13:44;;;;;;;43.10;10.55;;;8.20;99.90;;;;;;5044938;28;20040;-74
2024/01/25 12:16:10;;;;;;;48.13;11.05;;;8.20;99.90;;;;;;5033368;28;20025;-73
2024/01/25 12:18:37;;;;;;;46.10;12.10;;;8.20;99.90;;;;;;5042315;28;20072;-73
2024/01/25 12:21:04;;;;;;;43.80;10.75;;;8.30;99.90;;;;;;5040128;28;20484;-73
2024/01/25 12:23:40;;;;;;;40.53;11.32;;;8.30;99.90;;;;;;5037377;28;20078;-73
2024/01/25 12:26:10;;;;;;;31.52;9.25;;;8.40;99.90;;;;;;5041473;28;20044;-73
2024/01/25 12:28:40;;;;;;;39.50;11.38;;;8.40;99.90;;;;;;5038127;28;20017;-73
2024/01/25 12:31:06;;;;;;;47.65;11.95;;;8.40;99.90;;;;;;5038876;28;20033;-72
2024/01/25 12:33:33;;;;;;;37.35;10.80;;;8.40;99.90;;;;;;5045426;28;20381;-73
2024/01/25 12:35:59;;;;;;;31.98;10.15;;;8.40;99.90;;;;;;5035951;28;20412;-73
2024/01/25 12:38:25;;;;;;;48.47;10.93;;;8.40;99.90;;;;;;5042886;28;20584;-73
2024/01/25 12:40:52;;;;;;;48.53;12.35;;;8.40;99.90;;;;;;5046204;28;20059;-73